Terminal Aerodrome Forecast
Issued by NWS

Home | Current Version | Previous Version | Text Only | Print | Product List | Glossary On
Versions: 1 2 3 4 5 6 7 8 9 10 11 12 13 14 15 16 17 18 19 20 21 22 23 24 25
000
FTUS43 KGRB 192300 RRA
TAFCWA
TAF
KCWA 192342Z 2000/2024 29008KT P6SM VCSH BKN035 BKN070
      TEMPO 2000/2002 3SM -SHRA BR BKN025
     FM200300 32004KT 4SM BR SCT035 SCT070
      TEMPO 2005/2007 1 1/2SM BR BKN005
     FM200700 32003KT 1/2SM FG BKN003
     FM201400 32005KT 3SM BR BKN012
     FM201700 30005KT P6SM BKN035
     FM202200 VRB03KT P6SM SCT040=

USA.gov is the U.S. government's official web portal to all federal, state and local government web resources and services.